sensor_id;sensor_type;location;lat;lon;timestamp;P1;durP1;ratioP1;P2;durP2;ratioP2
6131;SDS011;3097;42.692;23.278;2024-03-02T00:02:01;33.40;;;16.27;;
6131;SDS011;3097;42.692;23.278;2024-03-02T00:04:27;36.23;;;20.40;;
6131;SDS011;3097;42.692;23.278;2024-03-02T00:06:52;28.83;;;15.03;;
6131;SDS011;3097;42.692;23.278;2024-03-02T00:09:21;29.87;;;16.37;;
6131;SDS011;3097;42.692;23.278;2024-03-02T00:11:46;23.80;;;14.40;;
6131;SDS011;3097;42.692;23.278;2024-03-02T00:14:12;23.90;;;12.77;;
6131;SDS011;3097;42.692;23.278;2024-03-02T00:16:37;24.27;;;13.40;;
6131;SDS011;3097;42.692;23.278;2024-03-02T00:19:03;23.67;;;12.73;;
6131;SDS011;3097;42.692;23.278;2024-03-02T00:21:32;28.37;;;12.87;;
6131;SDS011;3097;42.692;23.278;2024-03-02T00:23:58;24.93;;;13.90;;
6131;SDS011;3097;42.692;23.278;2024-03-02T00:26:25;23.37;;;13.47;;
6131;SDS011;3097;42.692;23.278;2024-03-02T00:28:52;21.47;;;12.30;;
6131;SDS011;3097;42.692;23.278;2024-03-02T00:31:22;25.87;;;14.03;;
6131;SDS011;3097;42.692;23.278;2024-03-02T00:33:48;24.57;;;14.50;;
6131;SDS011;3097;42.692;23.278;2024-03-02T00:36:26;24.60;;;14.30;;
6131;SDS011;3097;42.692;23.278;2024-03-02T00:38:55;24.77;;;14.07;;
6131;SDS011;3097;42.692;23.278;2024-03-02T00:41:21;23.73;;;14.27;;
6131;SDS011;3097;42.692;23.278;2024-03-02T00:46:24;23.10;;;13.73;;
6131;SDS011;3097;42.692;23.278;2024-03-02T00:48:54;22.80;;;13.90;;
6131;SDS011;3097;42.692;23.278;2024-03-02T00:51:22;21.93;;;13.20;;
6131;SDS011;3097;42.692;23.278;2024-03-02T00:53:49;47.17;;;23.03;;
6131;SDS011;3097;42.692;23.278;2024-03-02T00:56:17;29.47;;;14.73;;
6131;SDS011;3097;42.692;23.278;2024-03-02T00:58:43;32.13;;;15.87;;
6131;SDS011;3097;42.692;23.278;2024-03-02T01:01:08;23.80;;;13.80;;
6131;SDS011;3097;42.692;23.278;2024-03-02T01:03:34;22.93;;;13.40;;
6131;SDS011;3097;42.692;23.278;2024-03-02T01:06:00;24.17;;;14.37;;
6131;SDS011;3097;42.692;23.278;2024-03-02T01:08:26;22.93;;;13.97;;
6131;SDS011;3097;42.692;23.278;2024-03-02T01:10:51;28.30;;;14.07;;
6131;SDS011;3097;42.692;23.278;2024-03-02T01:13:17;23.20;;;13.77;;
6131;SDS011;3097;42.692;23.278;2024-03-02T01:15:43;27.33;;;14.17;;
6131;SDS011;3097;42.692;23.278;2024-03-02T01:18:09;24.07;;;14.67;;
6131;SDS011;3097;42.692;23.278;2024-03-02T01:20:34;29.30;;;17.10;;
6131;SDS011;3097;42.692;23.278;2024-03-02T01:23:00;23.93;;;14.73;;
6131;SDS011;3097;42.692;23.278;2024-03-02T01:25:25;21.53;;;13.37;;
6131;SDS011;3097;42.692;23.278;2024-03-02T01:27:51;17.33;;;11.30;;
6131;SDS011;3097;42.692;23.278;2024-03-02T01:30:16;19.43;;;11.53;;
6131;SDS011;3097;42.692;23.278;2024-03-02T01:32:42;20.93;;;12.53;;
6131;SDS011;3097;42.692;23.278;2024-03-02T01:35:08;19.40;;;11.87;;
6131;SDS011;3097;42.692;23.278;2024-03-02T01:37:34;20.03;;;11.63;;
6131;SDS011;3097;42.692;23.278;2024-03-02T01:40:00;20.27;;;11.03;;
6131;SDS011;3097;42.692;23.278;2024-03-02T01:42:25;17.90;;;11.70;;
6131;SDS011;3097;42.692;23.278;2024-03-02T01:44:51;23.00;;;12.57;;
6131;SDS011;3097;42.692;23.278;2024-03-02T01:47:17;46.97;;;24.27;;
6131;SDS011;3097;42.692;23.278;2024-03-02T01:49:43;24.23;;;12.97;;
6131;SDS011;3097;42.692;23.278;2024-03-02T01:52:08;24.93;;;13.43;;
6131;SDS011;3097;42.692;23.278;2024-03-02T01:54:34;26.03;;;14.83;;
6131;SDS011;3097;42.692;23.278;2024-03-02T01:56:59;24.90;;;13.77;;
6131;SDS011;3097;42.692;23.278;2024-03-02T01:59:25;25.00;;;13.77;;
6131;SDS011;3097;42.692;23.278;2024-03-02T02:01:52;23.63;;;13.77;;
6131;SDS011;3097;42.692;23.278;2024-03-02T02:04:17;23.57;;;13.60;;
6131;SDS011;3097;42.692;23.278;2024-03-02T02:06:45;21.70;;;13.07;;
6131;SDS011;3097;42.692;23.278;2024-03-02T02:09:11;25.57;;;13.73;;
6131;SDS011;3097;42.692;23.278;2024-03-02T02:11:37;24.20;;;14.03;;
6131;SDS011;3097;42.692;23.278;2024-03-02T02:14:02;26.67;;;14.53;;
6131;SDS011;3097;42.692;23.278;2024-03-02T02:16:28;25.30;;;13.60;;
6131;SDS011;3097;42.692;23.278;2024-03-02T02:18:53;23.37;;;12.77;;
6131;SDS011;3097;42.692;23.278;2024-03-02T02:21:22;24.83;;;13.63;;
6131;SDS011;3097;42.692;23.278;2024-03-02T02:23:48;28.03;;;16.27;;
6131;SDS011;3097;42.692;23.278;2024-03-02T02:26:13;29.67;;;16.03;;
6131;SDS011;3097;42.692;23.278;2024-03-02T02:28:39;32.37;;;17.43;;
6131;SDS011;3097;42.692;23.278;2024-03-02T02:31:11;32.20;;;17.40;;
6131;SDS011;3097;42.692;23.278;2024-03-02T02:33:39;38.03;;;18.70;;
6131;SDS011;3097;42.692;23.278;2024-03-02T02:36:05;34.33;;;17.37;;
6131;SDS011;3097;42.692;23.278;2024-03-02T02:38:31;32.47;;;17.90;;
6131;SDS011;3097;42.692;23.278;2024-03-02T02:41:00;34.57;;;19.07;;
6131;SDS011;3097;42.692;23.278;2024-03-02T02:43:26;37.47;;;19.47;;
6131;SDS011;3097;42.692;23.278;2024-03-02T02:45:51;37.03;;;19.40;;
6131;SDS011;3097;42.692;23.278;2024-03-02T02:48:17;38.37;;;19.97;;
6131;SDS011;3097;42.692;23.278;2024-03-02T02:50:42;37.00;;;18.93;;
6131;SDS011;3097;42.692;23.278;2024-03-02T02:53:08;38.20;;;20.27;;
6131;SDS011;3097;42.692;23.278;2024-03-02T02:55:35;36.00;;;19.00;;
6131;SDS011;3097;42.692;23.278;2024-03-02T02:58:05;38.77;;;19.33;;
6131;SDS011;3097;42.692;23.278;2024-03-02T03:03:12;38.00;;;19.83;;
6131;SDS011;3097;42.692;23.278;2024-03-02T03:05:38;37.73;;;20.03;;
6131;SDS011;3097;42.692;23.278;2024-03-02T03:08:04;37.30;;;19.10;;
6131;SDS011;3097;42.692;23.278;2024-03-02T03:10:29;38.63;;;18.70;;
6131;SDS011;3097;42.692;23.278;2024-03-02T03:12:55;39.50;;;20.57;;
6131;SDS011;3097;42.692;23.278;2024-03-02T03:15:21;39.60;;;20.33;;
6131;SDS011;3097;42.692;23.278;2024-03-02T03:17:46;36.83;;;19.90;;
6131;SDS011;3097;42.692;23.278;2024-03-02T03:20:12;36.70;;;18.90;;
6131;SDS011;3097;42.692;23.278;2024-03-02T03:22:39;37.17;;;19.37;;
6131;SDS011;3097;42.692;23.278;2024-03-02T03:25:05;39.30;;;20.23;;
6131;SDS011;3097;42.692;23.278;2024-03-02T03:27:33;38.70;;;20.77;;
6131;SDS011;3097;42.692;23.278;2024-03-02T03:29:58;42.23;;;20.80;;
6131;SDS011;3097;42.692;23.278;2024-03-02T03:32:24;39.20;;;20.00;;
6131;SDS011;3097;42.692;23.278;2024-03-02T03:34:50;36.23;;;18.67;;
6131;SDS011;3097;42.692;23.278;2024-03-02T03:37:15;42.73;;;20.97;;
6131;SDS011;3097;42.692;23.278;2024-03-02T03:39:41;39.43;;;20.67;;
6131;SDS011;3097;42.692;23.278;2024-03-02T03:42:06;38.47;;;20.30;;
6131;SDS011;3097;42.692;23.278;2024-03-02T03:44:32;35.20;;;19.27;;
6131;SDS011;3097;42.692;23.278;2024-03-02T03:46:58;41.57;;;20.13;;
6131;SDS011;3097;42.692;23.278;2024-03-02T03:49:24;37.30;;;19.27;;
6131;SDS011;3097;42.692;23.278;2024-03-02T03:51:49;38.90;;;21.50;;
6131;SDS011;3097;42.692;23.278;2024-03-02T03:54:15;40.57;;;20.87;;
6131;SDS011;3097;42.692;23.278;2024-03-02T03:56:40;41.13;;;21.73;;
6131;SDS011;3097;42.692;23.278;2024-03-02T03:59:06;45.30;;;23.30;;
6131;SDS011;3097;42.692;23.278;2024-03-02T04:01:31;45.77;;;22.47;;
6131;SDS011;3097;42.692;23.278;2024-03-02T04:03:57;44.43;;;22.17;;
6131;SDS011;3097;42.692;23.278;2024-03-02T04:06:23;44.23;;;21.23;;
6131;SDS011;3097;42.692;23.278;2024-03-02T04:08:49;40.37;;;21.37;;
6131;SDS011;3097;42.692;23.278;2024-03-02T04:11:14;37.80;;;19.97;;
6131;SDS011;3097;42.692;23.278;2024-03-02T04:13:40;42.93;;;21.30;;
6131;SDS011;3097;42.692;23.278;2024-03-02T04:16:05;38.83;;;20.63;;
6131;SDS011;3097;42.692;23.278;2024-03-02T04:18:31;40.00;;;21.03;;
6131;SDS011;3097;42.692;23.278;2024-03-02T04:20:57;39.70;;;21.33;;
6131;SDS011;3097;42.692;23.278;2024-03-02T04:23:25;41.97;;;21.13;;
6131;SDS011;3097;42.692;23.278;2024-03-02T04:25:51;41.23;;;21.80;;
6131;SDS011;3097;42.692;23.278;2024-03-02T04:28:16;41.87;;;22.57;;
6131;SDS011;3097;42.692;23.278;2024-03-02T04:30:42;51.07;;;26.57;;
6131;SDS011;3097;42.692;23.278;2024-03-02T04:33:07;53.67;;;27.63;;
6131;SDS011;3097;42.692;23.278;2024-03-02T04:35:35;72.17;;;36.70;;
6131;SDS011;3097;42.692;23.278;2024-03-02T04:38:01;99.03;;;48.03;;
6131;SDS011;3097;42.692;23.278;2024-03-02T04:40:27;106.47;;;50.93;;
6131;SDS011;3097;42.692;23.278;2024-03-02T04:42:52;95.47;;;45.80;;
6131;SDS011;3097;42.692;23.278;2024-03-02T04:45:18;95.40;;;43.07;;
6131;SDS011;3097;42.692;23.278;2024-03-02T04:47:44;73.20;;;38.63;;
6131;SDS011;3097;42.692;23.278;2024-03-02T04:50:09;93.73;;;44.00;;
6131;SDS011;3097;42.692;23.278;2024-03-02T04:52:35;84.40;;;43.73;;
6131;SDS011;3097;42.692;23.278;2024-03-02T04:55:01;70.93;;;34.73;;
6131;SDS011;3097;42.692;23.278;2024-03-02T04:57:56;52.13;;;27.10;;
6131;SDS011;3097;42.692;23.278;2024-03-02T05:00:21;51.53;;;23.53;;
6131;SDS011;3097;42.692;23.278;2024-03-02T05:02:47;49.27;;;24.93;;
6131;SDS011;3097;42.692;23.278;2024-03-02T05:05:12;49.27;;;23.43;;
6131;SDS011;3097;42.692;23.278;2024-03-02T05:07:40;53.00;;;25.93;;
6131;SDS011;3097;42.692;23.278;2024-03-02T05:10:07;58.83;;;30.07;;
6131;SDS011;3097;42.692;23.278;2024-03-02T05:12:33;66.10;;;32.57;;
6131;SDS011;3097;42.692;23.278;2024-03-02T05:15:11;59.63;;;30.83;;
6131;SDS011;3097;42.692;23.278;2024-03-02T05:17:39;59.90;;;29.63;;
6131;SDS011;3097;42.692;23.278;2024-03-02T05:20:05;54.87;;;29.03;;
6131;SDS011;3097;42.692;23.278;2024-03-02T05:22:37;52.83;;;27.50;;
6131;SDS011;3097;42.692;23.278;2024-03-02T05:25:04;55.13;;;27.27;;
6131;SDS011;3097;42.692;23.278;2024-03-02T05:27:30;54.50;;;26.50;;
6131;SDS011;3097;42.692;23.278;2024-03-02T05:29:58;50.53;;;25.37;;
6131;SDS011;3097;42.692;23.278;2024-03-02T05:32:24;49.47;;;25.70;;
6131;SDS011;3097;42.692;23.278;2024-03-02T05:34:49;53.17;;;27.17;;
6131;SDS011;3097;42.692;23.278;2024-03-02T05:37:16;51.43;;;27.50;;
6131;SDS011;3097;42.692;23.278;2024-03-02T05:39:42;48.60;;;27.40;;
6131;SDS011;3097;42.692;23.278;2024-03-02T05:42:08;56.10;;;29.07;;
6131;SDS011;3097;42.692;23.278;2024-03-02T05:44:34;57.07;;;30.83;;
6131;SDS011;3097;42.692;23.278;2024-03-02T05:47:01;58.60;;;29.97;;
6131;SDS011;3097;42.692;23.278;2024-03-02T05:49:26;52.60;;;27.57;;
6131;SDS011;3097;42.692;23.278;2024-03-02T05:51:52;46.07;;;22.57;;
6131;SDS011;3097;42.692;23.278;2024-03-02T05:54:17;47.13;;;24.30;;
6131;SDS011;3097;42.692;23.278;2024-03-02T05:56:43;47.50;;;24.50;;
6131;SDS011;3097;42.692;23.278;2024-03-02T05:59:09;50.03;;;25.17;;
6131;SDS011;3097;42.692;23.278;2024-03-02T06:01:40;55.07;;;24.63;;
6131;SDS011;3097;42.692;23.278;2024-03-02T06:04:08;49.90;;;24.10;;
6131;SDS011;3097;42.692;23.278;2024-03-02T06:06:34;48.17;;;23.53;;
6131;SDS011;3097;42.692;23.278;2024-03-02T06:09:00;47.47;;;23.90;;
6131;SDS011;3097;42.692;23.278;2024-03-02T06:11:26;45.47;;;24.67;;
6131;SDS011;3097;42.692;23.278;2024-03-02T06:13:51;45.57;;;23.57;;
6131;SDS011;3097;42.692;23.278;2024-03-02T06:16:17;45.00;;;24.03;;
6131;SDS011;3097;42.692;23.278;2024-03-02T06:18:42;49.87;;;26.10;;
6131;SDS011;3097;42.692;23.278;2024-03-02T06:21:08;51.87;;;29.07;;
6131;SDS011;3097;42.692;23.278;2024-03-02T06:23:33;55.47;;;27.93;;
6131;SDS011;3097;42.692;23.278;2024-03-02T06:26:00;54.53;;;27.37;;
6131;SDS011;3097;42.692;23.278;2024-03-02T06:28:25;57.83;;;28.57;;
6131;SDS011;3097;42.692;23.278;2024-03-02T06:30:51;52.53;;;25.40;;
6131;SDS011;3097;42.692;23.278;2024-03-02T06:33:17;49.03;;;25.43;;
6131;SDS011;3097;42.692;23.278;2024-03-02T06:35:42;47.97;;;24.37;;
6131;SDS011;3097;42.692;23.278;2024-03-02T06:38:08;46.70;;;23.20;;
6131;SDS011;3097;42.692;23.278;2024-03-02T06:40:33;47.43;;;23.63;;
6131;SDS011;3097;42.692;23.278;2024-03-02T06:42:59;46.63;;;24.00;;
6131;SDS011;3097;42.692;23.278;2024-03-02T06:45:25;45.83;;;23.63;;
6131;SDS011;3097;42.692;23.278;2024-03-02T06:47:50;45.43;;;23.10;;
6131;SDS011;3097;42.692;23.278;2024-03-02T06:50:16;45.63;;;23.93;;
6131;SDS011;3097;42.692;23.278;2024-03-02T06:52:45;49.90;;;24.73;;
6131;SDS011;3097;42.692;23.278;2024-03-02T06:55:10;45.10;;;22.20;;
6131;SDS011;3097;42.692;23.278;2024-03-02T06:57:36;43.43;;;21.97;;
6131;SDS011;3097;42.692;23.278;2024-03-02T07:00:01;45.30;;;23.47;;
6131;SDS011;3097;42.692;23.278;2024-03-02T07:02:30;44.53;;;22.03;;
6131;SDS011;3097;42.692;23.278;2024-03-02T07:04:56;45.80;;;21.83;;
6131;SDS011;3097;42.692;23.278;2024-03-02T07:07:21;39.70;;;19.60;;
6131;SDS011;3097;42.692;23.278;2024-03-02T07:09:47;43.33;;;19.83;;
6131;SDS011;3097;42.692;23.278;2024-03-02T07:12:13;36.20;;;19.47;;
6131;SDS011;3097;42.692;23.278;2024-03-02T07:14:39;43.40;;;21.33;;
6131;SDS011;3097;42.692;23.278;2024-03-02T07:17:23;39.33;;;20.23;;
6131;SDS011;3097;42.692;23.278;2024-03-02T07:19:48;37.43;;;18.47;;
6131;SDS011;3097;42.692;23.278;2024-03-02T07:22:14;38.80;;;18.50;;
6131;SDS011;3097;42.692;23.278;2024-03-02T07:24:43;34.67;;;17.60;;
6131;SDS011;3097;42.692;23.278;2024-03-02T07:27:11;33.30;;;16.87;;
6131;SDS011;3097;42.692;23.278;2024-03-02T07:29:37;36.77;;;18.67;;
6131;SDS011;3097;42.692;23.278;2024-03-02T07:32:03;36.63;;;19.23;;
6131;SDS011;3097;42.692;23.278;2024-03-02T07:34:29;38.07;;;18.87;;
6131;SDS011;3097;42.692;23.278;2024-03-02T07:36:55;39.57;;;19.53;;
6131;SDS011;3097;42.692;23.278;2024-03-02T07:39:21;38.13;;;19.10;;
6131;SDS011;3097;42.692;23.278;2024-03-02T07:41:47;41.43;;;19.23;;
6131;SDS011;3097;42.692;23.278;2024-03-02T07:44:12;33.03;;;17.50;;
6131;SDS011;3097;42.692;23.278;2024-03-02T07:46:43;39.77;;;18.00;;
6131;SDS011;3097;42.692;23.278;2024-03-02T07:49:09;33.13;;;17.00;;
6131;SDS011;3097;42.692;23.278;2024-03-02T07:51:35;34.87;;;17.80;;
6131;SDS011;3097;42.692;23.278;2024-03-02T07:54:01;34.20;;;18.23;;
6131;SDS011;3097;42.692;23.278;2024-03-02T07:56:27;35.47;;;18.43;;
6131;SDS011;3097;42.692;23.278;2024-03-02T07:58:53;32.73;;;18.03;;
6131;SDS011;3097;42.692;23.278;2024-03-02T08:01:19;34.60;;;17.67;;
6131;SDS011;3097;42.692;23.278;2024-03-02T08:03:44;33.40;;;17.80;;
6131;SDS011;3097;42.692;23.278;2024-03-02T08:06:15;34.83;;;18.17;;
6131;SDS011;3097;42.692;23.278;2024-03-02T08:08:42;36.47;;;17.50;;
6131;SDS011;3097;42.692;23.278;2024-03-02T08:11:08;32.53;;;16.40;;
6131;SDS011;3097;42.692;23.278;2024-03-02T08:13:33;35.00;;;18.20;;
6131;SDS011;3097;42.692;23.278;2024-03-02T08:15:59;37.83;;;17.97;;
6131;SDS011;3097;42.692;23.278;2024-03-02T08:18:24;34.90;;;18.47;;
6131;SDS011;3097;42.692;23.278;2024-03-02T08:20:50;53.17;;;24.73;;
6131;SDS011;3097;42.692;23.278;2024-03-02T08:23:16;37.40;;;18.67;;
6131;SDS011;3097;42.692;23.278;2024-03-02T08:25:42;33.63;;;18.20;;
6131;SDS011;3097;42.692;23.278;2024-03-02T08:28:08;37.83;;;18.63;;
6131;SDS011;3097;42.692;23.278;2024-03-02T08:30:33;40.83;;;18.37;;
6131;SDS011;3097;42.692;23.278;2024-03-02T08:33:00;35.23;;;17.77;;
6131;SDS011;3097;42.692;23.278;2024-03-02T08:35:27;34.33;;;18.37;;
6131;SDS011;3097;42.692;23.278;2024-03-02T08:37:53;33.63;;;17.57;;
6131;SDS011;3097;42.692;23.278;2024-03-02T08:40:18;35.97;;;18.57;;
6131;SDS011;3097;42.692;23.278;2024-03-02T08:42:44;38.73;;;17.53;;
6131;SDS011;3097;42.692;23.278;2024-03-02T08:45:10;34.07;;;17.33;;
6131;SDS011;3097;42.692;23.278;2024-03-02T08:47:36;34.73;;;17.90;;
6131;SDS011;3097;42.692;23.278;2024-03-02T08:50:01;31.80;;;17.33;;
6131;SDS011;3097;42.692;23.278;2024-03-02T08:52:29;32.17;;;16.80;;
6131;SDS011;3097;42.692;23.278;2024-03-02T08:54:54;30.93;;;16.63;;
6131;SDS011;3097;42.692;23.278;2024-03-02T08:57:20;32.53;;;16.83;;
6131;SDS011;3097;42.692;23.278;2024-03-02T08:59:46;31.23;;;17.47;;
6131;SDS011;3097;42.692;23.278;2024-03-02T09:02:11;30.93;;;16.07;;
6131;SDS011;3097;42.692;23.278;2024-03-02T09:04:37;32.87;;;16.83;;
6131;SDS011;3097;42.692;23.278;2024-03-02T09:07:03;35.10;;;17.80;;
6131;SDS011;3097;42.692;23.278;2024-03-02T09:09:28;33.70;;;17.90;;
6131;SDS011;3097;42.692;23.278;2024-03-02T09:11:54;36.00;;;17.77;;
6131;SDS011;3097;42.692;23.278;2024-03-02T09:14:20;30.90;;;17.63;;
6131;SDS011;3097;42.692;23.278;2024-03-02T09:16:46;33.00;;;17.47;;
6131;SDS011;3097;42.692;23.278;2024-03-02T09:19:12;28.93;;;16.10;;
6131;SDS011;3097;42.692;23.278;2024-03-02T09:21:37;30.67;;;16.87;;
6131;SDS011;3097;42.692;23.278;2024-03-02T09:24:03;31.23;;;16.80;;
6131;SDS011;3097;42.692;23.278;2024-03-02T09:26:29;30.43;;;16.90;;
6131;SDS011;3097;42.692;23.278;2024-03-02T09:28:54;31.97;;;16.93;;
6131;SDS011;3097;42.692;23.278;2024-03-02T09:31:20;33.00;;;17.40;;
6131;SDS011;3097;42.692;23.278;2024-03-02T09:33:46;29.97;;;15.90;;
6131;SDS011;3097;42.692;23.278;2024-03-02T09:36:21;27.37;;;16.37;;
6131;SDS011;3097;42.692;23.278;2024-03-02T09:38:47;30.13;;;16.03;;
6131;SDS011;3097;42.692;23.278;2024-03-02T09:41:16;33.03;;;17.10;;
6131;SDS011;3097;42.692;23.278;2024-03-02T09:43:42;38.73;;;18.07;;
6131;SDS011;3097;42.692;23.278;2024-03-02T09:46:10;33.27;;;17.10;;
6131;SDS011;3097;42.692;23.278;2024-03-02T09:48:37;30.00;;;16.70;;
6131;SDS011;3097;42.692;23.278;2024-03-02T09:51:03;29.27;;;17.40;;
6131;SDS011;3097;42.692;23.278;2024-03-02T09:53:31;34.47;;;18.33;;
6131;SDS011;3097;42.692;23.278;2024-03-02T09:55:58;34.50;;;17.30;;
6131;SDS011;3097;42.692;23.278;2024-03-02T09:58:27;32.23;;;17.77;;
6131;SDS011;3097;42.692;23.278;2024-03-02T10:00:53;34.97;;;19.20;;
6131;SDS011;3097;42.692;23.278;2024-03-02T10:03:18;37.63;;;18.70;;
6131;SDS011;3097;42.692;23.278;2024-03-02T10:05:44;40.47;;;20.80;;
6131;SDS011;3097;42.692;23.278;2024-03-02T10:08:10;34.47;;;18.87;;
6131;SDS011;3097;42.692;23.278;2024-03-02T10:10:36;37.77;;;19.50;;
6131;SDS011;3097;42.692;23.278;2024-03-02T10:13:07;39.60;;;20.17;;
6131;SDS011;3097;42.692;23.278;2024-03-02T10:15:35;37.00;;;20.03;;
6131;SDS011;3097;42.692;23.278;2024-03-02T10:18:02;37.83;;;20.33;;
6131;SDS011;3097;42.692;23.278;2024-03-02T10:20:34;38.47;;;20.20;;
6131;SDS011;3097;42.692;23.278;2024-03-02T10:23:13;39.70;;;20.50;;
6131;SDS011;3097;42.692;23.278;2024-03-02T10:25:40;35.00;;;19.57;;
6131;SDS011;3097;42.692;23.278;2024-03-02T10:28:06;37.20;;;20.47;;
6131;SDS011;3097;42.692;23.278;2024-03-02T10:30:32;38.67;;;20.47;;
6131;SDS011;3097;42.692;23.278;2024-03-02T10:32:59;40.33;;;19.97;;
6131;SDS011;3097;42.692;23.278;2024-03-02T10:35:26;43.43;;;20.20;;
6131;SDS011;3097;42.692;23.278;2024-03-02T10:37:52;54.73;;;27.10;;
6131;SDS011;3097;42.692;23.278;2024-03-02T10:40:21;40.03;;;21.87;;
6131;SDS011;3097;42.692;23.278;2024-03-02T10:42:48;41.30;;;20.57;;
6131;SDS011;3097;42.692;23.278;2024-03-02T10:45:15;38.80;;;20.80;;
6131;SDS011;3097;42.692;23.278;2024-03-02T10:47:42;36.20;;;19.73;;
6131;SDS011;3097;42.692;23.278;2024-03-02T10:50:09;37.37;;;19.93;;
6131;SDS011;3097;42.692;23.278;2024-03-02T10:52:35;40.77;;;19.50;;
6131;SDS011;3097;42.692;23.278;2024-03-02T10:55:01;39.77;;;19.93;;
6131;SDS011;3097;42.692;23.278;2024-03-02T10:57:33;36.33;;;19.57;;
6131;SDS011;3097;42.692;23.278;2024-03-02T11:00:06;42.43;;;19.60;;
6131;SDS011;3097;42.692;23.278;2024-03-02T11:02:40;37.13;;;17.90;;
6131;SDS011;3097;42.692;23.278;2024-03-02T11:05:23;33.90;;;18.70;;
6131;SDS011;3097;42.692;23.278;2024-03-02T11:08:02;37.07;;;19.70;;
6131;SDS011;3097;42.692;23.278;2024-03-02T11:10:41;39.60;;;19.90;;
6131;SDS011;3097;42.692;23.278;2024-03-02T11:13:13;35.27;;;17.97;;
6131;SDS011;3097;42.692;23.278;2024-03-02T11:15:39;32.03;;;17.93;;
6131;SDS011;3097;42.692;23.278;2024-03-02T11:18:08;34.30;;;18.00;;
6131;SDS011;3097;42.692;23.278;2024-03-02T11:20:39;33.63;;;18.13;;
6131;SDS011;3097;42.692;23.278;2024-03-02T11:23:09;34.23;;;18.73;;
6131;SDS011;3097;42.692;23.278;2024-03-02T11:25:35;34.03;;;18.23;;
6131;SDS011;3097;42.692;23.278;2024-03-02T11:28:04;32.23;;;17.77;;
6131;SDS011;3097;42.692;23.278;2024-03-02T11:32:56;37.73;;;18.90;;
6131;SDS011;3097;42.692;23.278;2024-03-02T11:35:23;31.73;;;17.63;;
6131;SDS011;3097;42.692;23.278;2024-03-02T11:37:51;32.83;;;17.27;;
6131;SDS011;3097;42.692;23.278;2024-03-02T11:40:27;32.67;;;17.07;;
6131;SDS011;3097;42.692;23.278;2024-03-02T11:42:53;32.67;;;18.07;;
6131;SDS011;3097;42.692;23.278;2024-03-02T11:45:23;31.33;;;17.40;;
6131;SDS011;3097;42.692;23.278;2024-03-02T11:47:56;28.20;;;16.43;;
6131;SDS011;3097;42.692;23.278;2024-03-02T11:50:29;31.07;;;16.80;;
6131;SDS011;3097;42.692;23.278;2024-03-02T11:52:58;30.47;;;16.63;;
6131;SDS011;3097;42.692;23.278;2024-03-02T11:55:25;26.80;;;16.30;;
6131;SDS011;3097;42.692;23.278;2024-03-02T11:57:54;29.87;;;16.93;;
6131;SDS011;3097;42.692;23.278;2024-03-02T12:00:20;32.40;;;16.90;;
6131;SDS011;3097;42.692;23.278;2024-03-02T12:02:46;31.43;;;17.73;;
6131;SDS011;3097;42.692;23.278;2024-03-02T12:05:24;29.97;;;17.63;;
6131;SDS011;3097;42.692;23.278;2024-03-02T12:07:54;30.27;;;17.63;;
6131;SDS011;3097;42.692;23.278;2024-03-02T12:10:21;28.90;;;17.40;;
6131;SDS011;3097;42.692;23.278;2024-03-02T12:12:47;32.93;;;17.30;;
6131;SDS011;3097;42.692;23.278;2024-03-02T12:15:13;32.60;;;17.50;;
6131;SDS011;3097;42.692;23.278;2024-03-02T12:17:38;30.27;;;17.40;;
6131;SDS011;3097;42.692;23.278;2024-03-02T12:20:07;31.20;;;17.67;;
6131;SDS011;3097;42.692;23.278;2024-03-02T12:22:33;34.30;;;17.67;;
6131;SDS011;3097;42.692;23.278;2024-03-02T12:24:59;31.80;;;18.03;;
6131;SDS011;3097;42.692;23.278;2024-03-02T12:27:24;30.37;;;16.80;;
6131;SDS011;3097;42.692;23.278;2024-03-02T12:29:50;31.10;;;16.30;;
6131;SDS011;3097;42.692;23.278;2024-03-02T12:32:16;30.37;;;17.23;;
6131;SDS011;3097;42.692;23.278;2024-03-02T12:34:41;30.87;;;18.03;;
6131;SDS011;3097;42.692;23.278;2024-03-02T12:37:07;34.30;;;17.17;;
6131;SDS011;3097;42.692;23.278;2024-03-02T12:39:32;31.00;;;17.67;;
6131;SDS011;3097;42.692;23.278;2024-03-02T12:41:58;29.93;;;16.53;;
6131;SDS011;3097;42.692;23.278;2024-03-02T12:44:24;32.47;;;17.47;;
6131;SDS011;3097;42.692;23.278;2024-03-02T12:46:49;31.87;;;17.27;;
6131;SDS011;3097;42.692;23.278;2024-03-02T12:49:15;27.87;;;16.83;;
6131;SDS011;3097;42.692;23.278;2024-03-02T12:51:45;33.37;;;17.70;;
6131;SDS011;3097;42.692;23.278;2024-03-02T12:54:16;31.37;;;18.07;;
6131;SDS011;3097;42.692;23.278;2024-03-02T12:57:01;28.77;;;16.90;;
6131;SDS011;3097;42.692;23.278;2024-03-02T12:59:27;31.57;;;17.03;;
6131;SDS011;3097;42.692;23.278;2024-03-02T13:01:53;29.27;;;17.73;;
6131;SDS011;3097;42.692;23.278;2024-03-02T13:04:22;31.60;;;19.30;;
6131;SDS011;3097;42.692;23.278;2024-03-02T13:06:50;29.20;;;18.07;;
6131;SDS011;3097;42.692;23.278;2024-03-02T13:09:16;33.03;;;18.87;;
6131;SDS011;3097;42.692;23.278;2024-03-02T13:11:42;26.53;;;16.70;;
6131;SDS011;3097;42.692;23.278;2024-03-02T13:14:10;36.20;;;21.13;;
6131;SDS011;3097;42.692;23.278;2024-03-02T13:16:39;32.40;;;18.63;;
6131;SDS011;3097;42.692;23.278;2024-03-02T13:19:08;34.17;;;20.47;;
6131;SDS011;3097;42.692;23.278;2024-03-02T13:21:34;29.77;;;17.67;;
6131;SDS011;3097;42.692;23.278;2024-03-02T13:24:00;37.60;;;20.77;;
6131;SDS011;3097;42.692;23.278;2024-03-02T13:26:26;39.37;;;21.63;;
6131;SDS011;3097;42.692;23.278;2024-03-02T13:28:52;38.57;;;21.53;;
6131;SDS011;3097;42.692;23.278;2024-03-02T13:31:18;34.07;;;19.30;;
6131;SDS011;3097;42.692;23.278;2024-03-02T13:33:43;39.00;;;21.77;;
6131;SDS011;3097;42.692;23.278;2024-03-02T13:36:09;46.00;;;26.90;;
6131;SDS011;3097;42.692;23.278;2024-03-02T13:38:34;39.80;;;22.20;;
6131;SDS011;3097;42.692;23.278;2024-03-02T13:41:01;41.13;;;24.00;;
6131;SDS011;3097;42.692;23.278;2024-03-02T13:43:27;36.30;;;20.80;;
6131;SDS011;3097;42.692;23.278;2024-03-02T13:45:53;44.63;;;24.53;;
6131;SDS011;3097;42.692;23.278;2024-03-02T13:48:18;46.10;;;25.53;;
6131;SDS011;3097;42.692;23.278;2024-03-02T13:50:44;40.13;;;21.40;;
6131;SDS011;3097;42.692;23.278;2024-03-02T13:53:11;37.63;;;20.53;;
6131;SDS011;3097;42.692;23.278;2024-03-02T13:55:37;37.97;;;20.93;;
6131;SDS011;3097;42.692;23.278;2024-03-02T13:58:03;36.97;;;20.67;;
6131;SDS011;3097;42.692;23.278;2024-03-02T14:00:29;38.40;;;21.07;;
6131;SDS011;3097;42.692;23.278;2024-03-02T14:02:55;32.93;;;18.70;;
6131;SDS011;3097;42.692;23.278;2024-03-02T14:05:21;30.80;;;18.47;;
6131;SDS011;3097;42.692;23.278;2024-03-02T14:07:46;36.27;;;21.37;;
6131;SDS011;3097;42.692;23.278;2024-03-02T14:10:12;32.57;;;17.80;;
6131;SDS011;3097;42.692;23.278;2024-03-02T14:12:38;32.20;;;18.83;;
6131;SDS011;3097;42.692;23.278;2024-03-02T14:15:04;33.90;;;19.20;;
6131;SDS011;3097;42.692;23.278;2024-03-02T14:17:30;35.00;;;19.13;;
6131;SDS011;3097;42.692;23.278;2024-03-02T14:19:58;31.33;;;18.37;;
6131;SDS011;3097;42.692;23.278;2024-03-02T14:22:24;32.53;;;18.67;;
6131;SDS011;3097;42.692;23.278;2024-03-02T14:24:50;36.47;;;19.20;;
6131;SDS011;3097;42.692;23.278;2024-03-02T14:27:15;33.40;;;18.20;;
6131;SDS011;3097;42.692;23.278;2024-03-02T14:29:42;33.70;;;19.60;;
6131;SDS011;3097;42.692;23.278;2024-03-02T14:32:08;29.20;;;18.10;;
6131;SDS011;3097;42.692;23.278;2024-03-02T14:34:34;29.17;;;17.63;;
6131;SDS011;3097;42.692;23.278;2024-03-02T14:36:59;33.73;;;18.83;;
6131;SDS011;3097;42.692;23.278;2024-03-02T14:39:25;34.90;;;18.73;;